createdAt,value
2023-02-06T00:04:12.872Z,17.03
2023-02-06T00:10:17.401Z,6.50
2023-02-06T00:16:22.072Z,8.97
2023-02-06T00:22:27.302Z,9.77
2023-02-06T00:28:31.829Z,9.87
2023-02-06T00:34:36.690Z,8.07
2023-02-06T00:40:41.235Z,7.20
2023-02-06T00:46:45.907Z,7.47
2023-02-06T00:52:50.603Z,11.63
2023-02-06T00:58:55.159Z,8.00
2023-02-06T01:04:59.894Z,10.33
2023-02-06T01:11:04.408Z,11.97
2023-02-06T01:17:18.288Z,7.30
2023-02-06T01:23:25.913Z,9.30
2023-02-06T01:29:30.520Z,8.77
2023-02-06T01:35:35.263Z,7.03
2023-02-06T01:41:39.913Z,11.57
2023-02-06T01:47:46.927Z,10.03
2023-02-06T01:53:51.658Z,8.67
2023-02-06T01:59:58.636Z,7.40
2023-02-06T02:06:04.618Z,8.00
2023-02-06T02:12:10.654Z,9.63
2023-02-06T02:18:52.317Z,11.57
2023-02-06T02:25:02.454Z,10.53
2023-02-06T02:31:13.009Z,7.47
2023-02-06T02:37:35.214Z,7.20
2023-02-06T02:44:10.650Z,15.47
2023-02-06T02:50:20.612Z,6.17
2023-02-06T02:56:26.393Z,8.03
2023-02-06T03:02:43.162Z,8.60
2023-02-06T03:09:13.138Z,8.07
2023-02-06T03:15:32.846Z,6.83
2023-02-06T03:21:40.227Z,6.83
2023-02-06T03:27:46.056Z,7.77
2023-02-06T03:33:53.237Z,3.27
2023-02-06T03:39:57.812Z,5.17
2023-02-06T03:46:12.502Z,6.67
2023-02-06T03:52:32.018Z,7.97
2023-02-06T03:58:38.821Z,4.50
2023-02-06T04:04:44.075Z,5.87
2023-02-06T04:10:48.685Z,5.30
2023-02-06T04:16:53.395Z,6.00
2023-02-06T04:22:57.923Z,6.00
2023-02-06T04:29:02.448Z,7.17
2023-02-06T04:35:07.085Z,4.90
2023-02-06T04:41:12.314Z,5.53
2023-02-06T04:47:16.850Z,3.67
2023-02-06T04:53:21.432Z,4.60
2023-02-06T04:59:25.982Z,8.13
2023-02-06T05:05:30.537Z,4.83
2023-02-06T05:11:35.064Z,4.40
2023-02-06T05:17:39.557Z,4.90
2023-02-06T05:23:44.095Z,4.87
2023-02-06T05:29:48.655Z,5.30
2023-02-06T05:35:53.196Z,4.43
2023-02-06T05:41:57.730Z,5.13
2023-02-06T05:48:02.257Z,5.20
2023-02-06T05:54:06.790Z,5.47
2023-02-06T06:00:11.371Z,5.17
2023-02-06T06:06:16.002Z,5.80
2023-02-06T06:12:20.647Z,10.07
2023-02-06T06:18:25.222Z,7.87
2023-02-06T06:24:29.887Z,7.43
2023-02-06T06:30:35.751Z,7.87
2023-02-06T06:36:40.787Z,8.97
2023-02-06T06:42:45.300Z,10.33
2023-02-06T06:48:50.208Z,14.03
2023-02-06T06:54:54.871Z,13.07
2023-02-06T07:00:59.579Z,8.20
2023-02-06T07:07:17.343Z,13.07
2023-02-06T07:13:21.988Z,16.10
2023-02-06T07:19:26.517Z,11.50
2023-02-06T07:25:31.265Z,12.57
2023-02-06T07:31:35.869Z,15.40
2023-02-06T07:37:40.450Z,11.17
2023-02-06T07:43:44.969Z,9.90
2023-02-06T07:49:49.573Z,14.70
2023-02-06T07:55:54.128Z,13.80
2023-02-06T08:01:58.704Z,13.03
2023-02-06T08:08:03.399Z,13.90
2023-02-06T08:14:08.263Z,19.80
2023-02-06T08:20:12.772Z,10.53
2023-02-06T08:26:17.324Z,12.30
2023-02-06T08:32:27.832Z,12.43
2023-02-06T08:38:32.474Z,16.33
2023-02-06T08:44:37.013Z,16.30
2023-02-06T08:50:41.630Z,22.50
2023-02-06T08:56:46.215Z,22.17
2023-02-06T09:02:51.209Z,21.73
2023-02-06T09:08:55.819Z,18.10
2023-02-06T09:15:02.284Z,25.10
2023-02-06T09:21:07.179Z,18.60
2023-02-06T09:27:11.692Z,24.60
2023-02-06T09:33:16.330Z,25.03
2023-02-06T09:39:21.022Z,26.20
2023-02-06T09:45:32.205Z,28.97
2023-02-06T09:51:45.454Z,26.30
2023-02-06T09:58:20.889Z,30.90
2023-02-06T10:04:28.602Z,36.43
2023-02-06T10:10:40.343Z,23.67
2023-02-06T10:16:51.674Z,42.60
2023-02-06T10:23:06.155Z,23.33
2023-02-06T10:29:26.781Z,32.63
2023-02-06T10:35:39.687Z,26.73
2023-02-06T10:41:53.031Z,21.10
2023-02-06T10:47:58.327Z,28.17
2023-02-06T10:54:30.342Z,20.50
2023-02-06T11:00:43.230Z,26.53
2023-02-06T11:06:48.205Z,23.87
2023-02-06T11:12:53.202Z,22.10
2023-02-06T11:18:59.276Z,21.83
2023-02-06T11:25:18.182Z,22.47
2023-02-06T11:31:39.296Z,16.17
2023-02-06T11:37:44.756Z,18.47
2023-02-06T11:43:51.599Z,18.67
2023-02-06T11:49:59.355Z,14.77
2023-02-06T11:56:07.654Z,20.60
2023-02-06T12:02:26.103Z,35.13
2023-02-06T12:08:47.878Z,22.60
2023-02-06T12:14:57.761Z,24.10
2023-02-06T12:21:18.621Z,21.97
2023-02-06T12:27:26.891Z,20.23
2023-02-06T12:33:41.226Z,21.67
2023-02-06T12:39:51.340Z,26.53
2023-02-06T12:46:04.687Z,25.63
2023-02-06T12:52:19.915Z,25.10
2023-02-06T12:58:31.945Z,25.37
2023-02-06T13:04:46.873Z,26.80
2023-02-06T13:11:06.460Z,22.90
2023-02-06T13:17:12.055Z,22.87
2023-02-06T13:23:16.612Z,27.37
2023-02-06T13:29:25.170Z,25.37
2023-02-06T13:35:30.184Z,29.27
2023-02-06T13:41:34.784Z,27.30
2023-02-06T13:47:57.624Z,24.87
2023-02-06T13:54:05.339Z,20.23
2023-02-06T14:00:23.319Z,20.57
2023-02-06T14:06:51.888Z,24.00
2023-02-06T14:13:12.358Z,24.73
2023-02-06T14:19:25.695Z,19.73
2023-02-06T14:25:41.181Z,23.33
2023-02-06T14:32:03.866Z,22.03
2023-02-06T14:38:20.411Z,17.40
2023-02-06T14:44:27.900Z,17.07
2023-02-06T14:50:42.064Z,17.03
2023-02-06T14:56:47.744Z,14.37
2023-02-06T15:02:54.551Z,15.30
2023-02-06T15:09:05.546Z,18.33
2023-02-06T15:15:24.458Z,35.73
2023-02-06T15:21:32.514Z,20.87
2023-02-06T15:27:48.970Z,11.67
2023-02-06T15:33:55.597Z,18.47
2023-02-06T15:40:04.322Z,14.57
2023-02-06T15:46:09.788Z,16.13
2023-02-06T15:52:27.959Z,19.17
2023-02-06T15:58:34.934Z,17.30
2023-02-06T16:04:44.365Z,23.43
2023-02-06T16:11:35.843Z,27.97
2023-02-06T16:17:42.666Z,16.10
2023-02-06T16:23:47.291Z,17.67
2023-02-06T16:30:03.169Z,24.07
2023-02-06T16:36:07.971Z,19.77
2023-02-06T16:42:37.306Z,16.60
2023-02-06T16:48:41.894Z,17.30
2023-02-06T16:54:47.364Z,19.70
2023-02-06T17:00:52.838Z,19.60
2023-02-06T17:06:57.395Z,19.33
2023-02-06T17:13:01.989Z,16.57
2023-02-06T17:19:07.008Z,23.53
2023-02-06T17:25:11.644Z,21.30
2023-02-06T17:31:21.818Z,21.00
2023-02-06T17:37:26.552Z,22.77
2023-02-06T17:43:32.837Z,26.00
2023-02-06T17:49:40.179Z,23.07
2023-02-06T17:55:45.232Z,23.83
2023-02-06T18:01:51.886Z,26.97
2023-02-06T18:07:56.674Z,23.10
2023-02-06T18:14:01.221Z,27.20
2023-02-06T18:20:07.041Z,23.40
2023-02-06T18:26:14.400Z,26.30
2023-02-06T18:32:46.010Z,27.23
2023-02-06T18:38:50.792Z,19.17
2023-02-06T18:44:55.398Z,28.63
2023-02-06T18:51:00.848Z,28.67
2023-02-06T18:57:05.439Z,27.57
2023-02-06T19:03:10.374Z,28.87
2023-02-06T19:09:14.931Z,26.70
2023-02-06T19:15:20.650Z,33.93
2023-02-06T19:21:25.204Z,36.33
2023-02-06T19:27:31.150Z,28.17
2023-02-06T19:33:35.708Z,30.53
2023-02-06T19:39:40.457Z,30.50
2023-02-06T19:45:45.067Z,27.30
2023-02-06T19:51:49.699Z,30.87
2023-02-06T19:57:54.568Z,33.50
2023-02-06T20:03:59.126Z,31.53
2023-02-06T20:10:04.324Z,39.70
2023-02-06T20:16:09.250Z,33.27
2023-02-06T20:22:25.289Z,41.13
2023-02-06T20:28:30.197Z,32.87
2023-02-06T20:34:34.737Z,37.80
2023-02-06T20:40:44.358Z,39.83
2023-02-06T20:46:49.254Z,43.47
2023-02-06T20:52:54.351Z,33.33
2023-02-06T20:58:59.596Z,33.10
2023-02-06T21:05:08.953Z,33.30
2023-02-06T21:11:13.639Z,43.60
2023-02-06T21:17:18.249Z,38.20
2023-02-06T21:23:25.949Z,48.57
2023-02-06T21:29:30.570Z,56.47
2023-02-06T21:35:36.889Z,59.30
2023-02-06T21:41:41.432Z,47.17
2023-02-06T21:47:46.068Z,48.97
2023-02-06T21:53:50.793Z,55.10
2023-02-06T21:59:55.565Z,50.67
2023-02-06T22:06:00.057Z,47.40
2023-02-06T22:12:08.534Z,44.37
2023-02-06T22:18:13.111Z,51.33
2023-02-06T22:24:17.633Z,51.57
2023-02-06T22:30:22.257Z,50.23
2023-02-06T22:36:28.355Z,46.83
2023-02-06T22:42:33.456Z,57.77
2023-02-06T22:48:40.042Z,41.53
2023-02-06T22:54:44.824Z,49.80
2023-02-06T23:00:49.512Z,44.37
2023-02-06T23:06:54.092Z,44.33
2023-02-06T23:12:59.675Z,48.03
2023-02-06T23:19:04.630Z,50.43
2023-02-06T23:25:11.206Z,43.10
2023-02-06T23:31:16.607Z,37.53
2023-02-06T23:37:26.015Z,35.90
2023-02-06T23:43:32.189Z,46.43
2023-02-06T23:49:37.374Z,40.93
2023-02-06T23:55:42.026Z,27.63
